Latest Weather Observations for Morawa Airport

IDW60801

Issued at 10:53 pm WST Tuesday 19 February 2019 (issued every 10 minutes, with the page automatically refreshed every 10 minutes)

About weather observations | Map of weather stations | Latest weather observations for WA | Other Formats
Station Details ID: 008296 Name: MORAWA AIRPORT Lat: -29.20 Lon: 116.02 Height: 271.4 m
Data from the previous 72 hours. | See also: Recent months at Morawa Airport
Date/Time
WST
Temp
°C
App
Temp
°C
Dew
Point
°C
Rel
Hum
%
Delta-T
°C
Wind Press
QNH
hPa
Press
MSL
hPa
Rain since
9am
mm
Dir  Spd
km/h
Gust
km/h
Spd
kts
Gust
kts
19/10:30pm 22.1 20.7 14.5 62 4.5 WSW 15 22 8 12 1013.8 1011.9 0.0
19/10:00pm 22.9 21.7 13.9 57 5.3 WSW 13 24 7 13 1013.8 1011.9 0.0
19/09:30pm 24.1 22.3 13.3 51 6.3 WSW 15 20 8 11 1013.6 1011.7 0.0
19/09:00pm 25.0 23.2 12.2 44 7.4 WSW 13 19 7 10 1013.2 1011.4 0.0
19/08:30pm 26.1 23.3 11.5 40 8.4 WSW 17 22 9 12 1012.9 1011.1 0.0
19/08:00pm 27.6 24.3 10.8 35 9.6 WSW 19 32 10 17 1012.4 1010.6 0.0
19/07:30pm 29.0 25.6 9.2 29 11.1 WSW 17 26 9 14 1012.2 1010.4 0.0
19/07:00pm 30.3 26.2 8.7 26 12.1 WSW 20 32 11 17 1011.9 1010.1 0.0
19/06:30pm 31.7 26.7 8.0 23 13.2 WSW 24 35 13 19 1011.5 1009.7 0.0
19/06:00pm 32.9 27.6 8.4 22 13.9 WSW 26 41 14 22 1011.2 1009.3 0.0
19/05:30pm 34.6 29.7 8.4 20 14.9 WSW 24 39 13 21 1010.8 1008.9 0.0
19/05:00pm 36.2 31.2 8.1 18 16.1 WSW 24 39 13 21 1010.5 1008.6 0.0
19/04:30pm 37.1 32.5 8.0 17 16.7 WSW 22 35 12 19 1010.2 1008.3 0.0
19/04:00pm 37.4 33.0 6.4 15 17.4 WSW 19 32 10 17 1010.1 1008.2 0.0
19/03:30pm 38.0 33.3 5.9 14 17.9 WSW 20 32 11 17 1010.1 1008.2 0.0
19/03:00pm 37.8 33.6 5.7 14 17.8 SSW 17 30 9 16 1010.3 1008.4 0.0
19/02:30pm 38.6 35.1 5.3 13 18.4 SW 13 26 7 14 1010.5 1008.6 0.0
19/02:00pm 37.9 33.3 5.8 14 17.9 SSW 19 33 10 18 1010.7 1008.8 0.0
19/01:30pm 36.8 33.6 6.9 16 16.8 SSW 13 28 7 15 1011.0 1009.1 0.0
19/01:00pm 36.6 32.2 6.7 16 16.8 SSW 19 26 10 14 1011.3 1009.4 0.0
19/12:30pm 36.7 33.3 7.7 17 16.5 SSW 15 26 8 14 1011.6 1009.8 0.0
19/12:00pm 35.2 31.9 8.1 19 15.4 SW 15 22 8 12 1011.9 1010.1 0.0
19/11:30am 34.1 31.0 8.7 21 14.5 SW 15 20 8 11 1012.2 1010.4 0.0
19/11:00am 33.3 30.5 8.7 22 14.0 WSW 13 20 7 11 1012.4 1010.6 0.0
19/10:30am 32.1 30.2 9.0 24 13.1 SW 9 19 5 10 1012.6 1010.8 0.0
19/10:00am 30.7 28.4 9.0 26 12.3 SW 11 17 6 9 1012.9 1011.1 0.0
19/09:30am 29.9 27.8 9.9 29 11.4 SSW 11 15 6 8 1012.8 1011.0 0.0
19/09:00am 26.9 25.0 10.6 36 9.3 S 11 17 6 9 1012.9 1011.1 0.0
19/08:30am 24.8 23.2 11.7 44 7.5 SSW 11 17 6 9 1012.9 1011.1 0.0
19/08:00am 22.9 20.6 11.9 50 6.3 SSW 15 19 8 10 1012.8 1011.0 0.0
19/07:30am 21.4 19.2 12.0 55 5.3 SSW 15 20 8 11 1012.7 1010.9 0.0
19/07:00am 19.9 18.0 11.9 60 4.5 SSW 13 19 7 10 1012.6 1010.8 0.0
19/06:30am 18.9 17.3 11.7 63 4.0 SW 11 15 6 8 1012.4 1010.6 0.0
19/06:00am 18.7 17.0 11.3 62 4.1 SW 11 15 6 8 1012.2 1010.4 0.0
19/05:30am 19.0 17.3 11.1 60 4.4 SW 11 15 6 8 1011.9 1010.1 0.0
19/05:00am 19.2 17.3 10.5 57 4.8 SW 11 17 6 9 1011.7 1009.9 0.0
19/04:30am 19.6 17.7 10.6 56 4.9 SW 11 15 6 8 1011.5 1009.7 0.0
19/04:00am 20.0 18.5 10.7 55 5.1 SSW 9 13 5 7 1011.5 1009.7 0.0
19/03:30am 20.3 18.8 10.4 53 5.4 SSW 9 11 5 6 1011.6 1009.8 0.0
19/03:00am 20.8 19.3 10.6 52 5.6 SSW 9 13 5 7 1011.7 1009.9 0.0
19/02:30am 21.2 19.2 10.1 49 6.1 SSW 11 17 6 9 1011.8 1010.0 0.0
19/02:00am 21.7 19.2 9.6 46 6.6 SSW 13 19 7 10 1011.9 1010.1 0.0
19/01:30am 22.2 19.1 8.7 42 7.3 SSW 15 17 8 9 1012.2 1010.4 0.0
19/01:00am 22.8 20.0 8.5 40 7.7 SSW 13 19 7 10 1012.3 1010.5 0.0
19/12:30am 23.4 20.9 8.3 38 8.1 SSW 11 17 6 9 1012.5 1010.7 0.0
19/12:00am 23.8 21.2 7.8 36 8.5 SSW 11 15 6 8 1012.6 1010.8 0.0
 
Date/Time
WST
Temp
°C
App
Temp
°C
Dew
Point
°C
Rel
Hum
%
Delta-T
°C
Wind Press
QNH
hPa
Press
MSL
hPa
Rain since
9am
mm
Dir  Spd
km/h
Gust
km/h
Spd
kts
Gust
kts
18/11:30pm 24.5 21.1 7.6 34 9.0 SSW 15 19 8 10 1012.8 1011.0 0.0
18/11:00pm 25.1 22.0 7.3 32 9.5 SSW 13 19 7 10 1013.0 1011.2 0.0
18/10:30pm 25.8 22.0 7.4 31 9.9 SSW 17 24 9 13 1013.1 1011.3 0.0
18/10:00pm 26.4 22.6 7.4 30 10.2 SSW 17 24 9 13 1013.1 1011.3 0.0
18/09:30pm 27.1 22.7 7.5 29 10.6 SSW 20 28 11 15 1013.0 1011.2 0.0
18/09:00pm 28.0 22.4 7.3 27 11.2 SSW 26 35 14 19 1012.5 1010.7 0.0
18/08:30pm 28.8 23.6 7.4 26 11.7 SSW 24 37 13 20 1012.1 1010.3 0.0
18/08:00pm 29.9 24.1 7.8 25 12.2 SW 28 39 15 21 1011.7 1009.9 0.0
18/07:30pm 31.0 25.2 8.1 24 12.8 SW 28 43 15 23 1011.2 1009.3 0.0
18/07:00pm 32.4 27.0 8.0 22 13.7 SW 26 39 14 21 1010.8 1008.9 0.0
18/06:30pm 34.3 28.5 8.1 20 14.8 SW 28 41 15 22 1010.3 1008.4 0.0
18/06:00pm 36.5 32.5 6.6 16 16.7 SSW 17 37 9 20 1009.8 1007.9 0.0
18/05:30pm 37.3 32.8 4.3 13 17.9 SW 17 24 9 13 1009.8 1007.9 0.0
18/05:00pm 37.5 33.8 4.4 13 18.0 WSW 13 20 7 11 1009.8 1007.9 0.0
18/04:30pm 38.0 34.4 4.8 13 18.2 SSW 13 26 7 14 1009.9 1008.0 0.0
18/04:00pm 38.3 34.1 3.9 12 18.6 SW 15 24 8 13 1009.9 1008.0 0.0
18/03:30pm 37.8 34.1 4.7 13 18.1 SW 13 22 7 12 1010.0 1008.1 0.0
18/03:00pm 37.5 34.6 4.4 13 18.0 WSW 9 19 5 10 1010.2 1008.3 0.0
18/02:30pm 37.2 35.0 5.3 14 17.5 NNE 6 11 3 6 1010.5 1008.6 0.0
18/02:00pm 37.4 35.0 5.4 14 17.7 SW 7 15 4 8 1010.8 1008.9 0.0
18/01:30pm 37.0 34.2 5.1 14 17.5 S 9 15 5 8 1011.1 1009.2 0.0
18/01:00pm 36.7 34.1 5.9 15 17.1 ENE 9 15 5 8 1011.4 1009.6 0.0
18/12:30pm 35.5 33.0 6.7 17 16.0 E 9 19 5 10 1011.7 1009.9 0.0
18/12:00pm 35.4 33.7 8.3 19 15.5 NE 7 15 4 8 1012.0 1010.2 0.0
18/11:30am 34.5 33.0 8.3 20 14.9 NW 6 9 3 5 1012.5 1010.7 0.0
18/11:00am 33.9 31.9 8.5 21 14.4 ENE 9 17 5 9 1012.8 1011.0 0.0
18/10:30am 32.7 31.0 8.2 22 13.8 ENE 7 15 4 8 1013.1 1011.3 0.0
18/10:00am 32.1 28.9 8.4 23 13.3 ENE 15 26 8 14 1013.2 1011.4 0.0
18/09:30am 30.8 27.5 7.9 24 12.7 ENE 15 24 8 13 1013.3 1011.5 0.0
18/09:00am 29.8 25.7 7.7 25 12.2 ENE 19 28 10 15 1013.3 1011.5 0.0
18/08:30am 28.9 25.5 7.5 26 11.7 ESE 15 22 8 12 1013.5 1011.6 0.0
18/08:00am 27.1 23.1 6.5 27 10.9 ESE 17 24 9 13 1013.3 1011.5 0.0
18/07:30am 24.2 21.1 5.5 30 9.6 SSE 11 15 6 8 1013.3 1011.5 0.0
18/07:00am 22.1 19.7 5.1 33 8.5 S 7 9 4 5 1013.1 1011.3 0.0
18/06:30am 21.5 18.6 4.6 33 8.4 S 9 13 5 7 1012.8 1011.0 0.0
18/06:00am 20.7 17.8 4.7 35 7.9 SSE 9 13 5 7 1012.5 1010.7 0.0
18/05:30am 20.9 17.6 4.5 34 8.1 SSE 11 13 6 7 1012.3 1010.5 0.0
18/05:00am 21.3 18.4 4.4 33 8.3 S 9 13 5 7 1012.3 1010.5 0.0
18/04:30am 21.4 18.0 4.0 32 8.5 SE 11 17 6 9 1012.2 1010.4 0.0
18/04:00am 21.6 18.5 3.8 31 8.7 SE 9 13 5 7 1012.2 1010.4 0.0
18/03:30am 21.6 19.0 3.3 30 8.9 SE 6 9 3 5 1012.4 1010.6 0.0
18/03:00am 22.2 19.4 3.3 29 9.2 SSE 7 13 4 7 1012.4 1010.6 0.0
18/02:30am 23.3 19.4 3.3 27 9.8 SE 13 19 7 10 1012.4 1010.6 0.0
18/02:00am 23.7 19.8 3.6 27 9.9 SSE 13 22 7 12 1012.7 1010.9 0.0
18/01:30am 24.1 20.3 4.0 27 10.0 SE 13 17 7 9 1012.8 1011.0 0.0
18/01:00am 24.5 20.7 3.8 26 10.3 SE 13 19 7 10 1012.8 1011.0 0.0
18/12:30am 25.0 21.3 4.2 26 10.5 SE 13 17 7 9 1012.9 1011.1 0.0
18/12:00am 25.5 21.3 4.0 25 10.8 SE 15 22 8 12 1012.9 1011.1 0.0
 
Date/Time
WST
Temp
°C
App
Temp
°C
Dew
Point
°C
Rel
Hum
%
Delta-T
°C
Wind Press
QNH
hPa
Press
MSL
hPa
Rain since
9am
mm
Dir  Spd
km/h
Gust
km/h
Spd
kts
Gust
kts
17/11:30pm 26.1 21.8 5.1 26 10.8 SE 17 24 9 13 1013.0 1011.2 0.0
17/11:00pm 26.6 22.0 5.5 26 11.0 SE 19 26 10 14 1012.9 1011.1 0.0
17/10:30pm 27.3 22.6 6.1 26 11.2 SE 20 28 11 15 1013.0 1011.2 0.0
17/10:00pm 27.9 22.8 6.1 25 11.6 SSE 22 32 12 17 1012.9 1011.1 0.0
17/09:30pm 28.6 23.3 6.7 25 11.8 SSE 24 33 13 18 1012.8 1011.0 0.0
17/09:00pm 29.3 24.5 7.2 25 12.0 SSE 22 28 12 15 1012.5 1010.7 0.0
17/08:30pm 30.0 25.6 7.2 24 12.5 SSE 20 26 11 14 1012.2 1010.4 0.0
17/08:00pm 30.5 26.6 7.0 23 12.8 SSE 17 24 9 13 1011.8 1010.0 0.0
17/07:30pm 31.6 28.0 6.6 21 13.6 SSE 15 19 8 10 1011.4 1009.6 0.0
17/07:00pm 32.8 28.9 6.9 20 14.3 SSE 17 22 9 12 1011.1 1009.2 0.0
17/06:30pm 33.9 29.8 6.3 18 15.2 SSE 17 24 9 13 1010.7 1008.8 0.0
17/06:00pm 34.8 31.5 6.2 17 15.8 SSE 13 22 7 12 1010.6 1008.7 0.0
17/05:30pm 35.3 30.9 6.6 17 16.0 S 19 30 10 16 1010.5 1008.6 0.0
17/05:00pm 36.3 32.6 6.5 16 16.6 S 15 24 8 13 1010.5 1008.6 0.0
17/04:30pm 35.8 32.4 6.1 16 16.4 S 13 26 7 14 1010.7 1008.8 0.0
17/04:00pm 35.4 31.8 6.6 17 16.0 S 15 26 8 14 1010.7 1008.8 0.0
17/03:30pm 35.9 32.4 7.0 17 16.2 S 15 26 8 14 1010.8 1008.9 0.0
17/03:00pm 35.6 33.3 5.9 16 16.4 ESE 7 13 4 7 1011.1 1009.2 0.0
17/02:30pm 36.0 33.2 5.3 15 16.8 ESE 9 19 5 10 1011.6 1009.8 0.0
17/02:00pm 35.8 33.2 6.1 16 16.4 ESE 9 22 5 12 1011.9 1010.1 0.0
17/01:30pm 35.0 31.1 7.1 18 15.6 SSE 17 26 9 14 1012.3 1010.5 0.0
17/01:00pm 34.9 31.0 8.6 20 15.1 SE 19 28 10 15 1012.6 1010.8 0.0
17/12:30pm 33.9 30.3 8.5 21 14.4 SE 17 30 9 16 1013.1 1011.3 0.0
17/12:00pm 33.3 29.2 8.7 22 14.0 ESE 20 37 11 20 1013.7 1011.8 0.0
17/11:30am 32.6 28.5 8.8 23 13.5 ESE 20 30 11 16 1014.1 1012.2 0.0
17/11:00am 31.7 28.0 9.3 25 12.8 ESE 19 32 10 17 1014.6 1012.7 0.0
17/10:30am 30.5 26.9 9.9 28 11.8 ESE 19 24 10 13 1015.1 1013.3 0.0
17/10:00am 29.0 25.5 10.2 31 10.7 SE 19 28 10 15 1015.5 1013.7 0.0
17/09:30am 27.3 23.8 10.1 34 9.7 ESE 19 30 10 16 1015.8 1014.0 0.0
17/09:00am 26.7 23.0 10.0 35 9.4 ESE 20 28 11 15 1016.1 1014.3 0.0
17/08:30am 25.3 21.9 10.4 39 8.4 ESE 19 26 10 14 1016.1 1014.3 0.0
17/08:00am 24.0 20.1 10.7 43 7.5 ESE 22 28 12 15 1016.2 1014.4 0.0
17/07:30am 23.0 19.5 10.8 46 6.8 SE 20 28 11 15 1016.2 1014.4 0.0
17/07:00am 21.7 18.7 10.8 50 6.1 SE 17 30 9 16 1016.0 1014.2 0.0
17/06:30am 21.0 18.4 10.8 52 5.7 SE 15 22 8 12 1015.8 1014.0 0.0
17/06:00am 20.7 18.6 11.1 54 5.3 SE 13 20 7 11 1015.6 1013.8 0.0
17/05:30am 20.7 18.6 11.1 54 5.3 SE 13 20 7 11 1015.3 1013.5 0.0
17/05:00am 20.8 18.8 11.4 55 5.3 SE 13 19 7 10 1015.1 1013.3 0.0
17/04:30am 20.6 19.1 11.8 57 5.0 SSE 11 15 6 8 1014.8 1013.0 0.0
17/04:00am 20.6 18.9 12.6 60 4.6 S 13 17 7 9 1014.6 1012.7 0.0
17/03:30am 20.6 19.5 13.1 62 4.3 S 11 15 6 8 1014.5 1012.6 0.0
17/03:00am 20.4 19.9 13.8 66 3.8 S 9 13 5 7 1014.5 1012.6 0.0
17/02:30am 20.7 20.2 13.9 65 4.0 S 9 13 5 7 1014.5 1012.6 0.0
17/02:00am 20.7 19.9 14.1 66 3.9 S 11 15 6 8 1014.9 1013.1 0.0
17/01:30am 21.1 19.6 14.3 65 4.0 S 15 24 8 13 1015.1 1013.3 0.0
17/01:00am 21.4 19.4 13.8 62 4.4 SSW 17 24 9 13 1015.3 1013.5 0.0
17/12:30am 21.9 19.7 13.3 58 5.0 SSW 17 24 9 13 1015.3 1013.5 0.0
17/12:00am 22.5 19.8 13.0 55 5.5 SSW 19 26 10 14 1015.3 1013.5 0.0
 
Date/Time
WST
Temp
°C
App
Temp
°C
Dew
Point
°C
Rel
Hum
%
Delta-T
°C
Wind Press
QNH
hPa
Press
MSL
hPa
Rain since
9am
mm
Dir  Spd
km/h
Gust
km/h
Spd
kts
Gust
kts
16/11:30pm 23.2 20.8 12.8 52 6.0 SSW 17 22 9 12 1015.6 1013.8 0.0
16/11:00pm 24.1 21.3 12.7 49 6.6 SSW 19 26 10 14 1015.6 1013.8 0.0

Other formats

Comma delimited format used in spreadsheet applications
http://www.bom.gov.au/fwo/IDW60801/IDW60801.94417.axf

JavaScript Object Notation format (JSON) in row-major order
http://www.bom.gov.au/fwo/IDW60801/IDW60801.94417.json

Data quality

Most of these data are generated automatically and are frequently updated. Quality checks on data are not normally performed. It is possible for incorrect values to appear. Refer to information at About Latest Weather Observations and please check the disclaimer before using these data.